createdAt,value
2018-05-15T00:00:08.029Z,4.71
2018-05-15T00:00:20.633Z,4.71
2018-05-15T00:00:33.070Z,4.71
2018-05-15T00:00:45.481Z,4.71
2018-05-15T00:00:57.882Z,4.71
2018-05-15T00:01:10.296Z,4.71
2018-05-15T00:01:22.707Z,4.71
2018-05-15T00:01:35.142Z,4.71
2018-05-15T00:01:47.582Z,4.71
2018-05-15T00:02:00.004Z,4.71
2018-05-15T00:02:12.438Z,4.71
2018-05-15T00:02:24.862Z,4.71
2018-05-15T00:02:37.261Z,4.71
2018-05-15T00:02:49.683Z,4.71
2018-05-15T00:03:02.101Z,4.71
2018-05-15T00:03:14.547Z,4.71
2018-05-15T00:03:26.971Z,4.71
2018-05-15T00:03:39.412Z,4.71
2018-05-15T00:03:51.833Z,4.71
2018-05-15T00:04:04.353Z,4.71
2018-05-15T00:04:16.769Z,4.71
2018-05-15T00:04:29.193Z,4.71
2018-05-15T00:04:41.686Z,4.71
2018-05-15T00:04:54.082Z,4.71
2018-05-15T00:05:06.590Z,4.71
2018-05-15T00:05:19.008Z,4.71
2018-05-15T00:05:31.433Z,4.71
2018-05-15T00:05:43.842Z,4.71
2018-05-15T00:05:56.242Z,4.71
2018-05-15T00:06:08.655Z,4.71
2018-05-15T00:06:21.058Z,4.71
2018-05-15T00:06:33.560Z,4.71
2018-05-15T00:06:45.991Z,4.71
2018-05-15T00:06:58.400Z,4.71
2018-05-15T00:07:10.848Z,4.71
2018-05-15T00:07:23.280Z,4.71
2018-05-15T00:07:35.691Z,4.71
2018-05-15T00:07:48.108Z,4.71
2018-05-15T00:08:00.590Z,4.71
2018-05-15T00:08:13.015Z,4.85
2018-05-15T00:08:25.433Z,4.85
2018-05-15T00:08:37.851Z,4.85
2018-05-15T00:08:50.274Z,4.85
2018-05-15T00:09:02.701Z,4.85
2018-05-15T00:09:15.502Z,4.85
2018-05-15T00:09:28.105Z,4.85
2018-05-15T00:09:40.524Z,4.85
2018-05-15T00:09:52.938Z,4.85
2018-05-15T00:10:05.344Z,4.85
2018-05-15T00:10:17.754Z,4.85
2018-05-15T00:10:30.174Z,4.85
2018-05-15T00:10:42.605Z,4.85
2018-05-15T00:10:55.020Z,4.85
2018-05-15T00:11:07.426Z,4.85
2018-05-15T00:11:19.846Z,4.85
2018-05-15T00:11:32.263Z,4.85
2018-05-15T00:11:44.825Z,4.85
2018-05-15T00:11:57.232Z,4.85
2018-05-15T00:12:09.702Z,4.85
2018-05-15T00:12:22.115Z,4.85
2018-05-15T00:12:34.529Z,4.85
2018-05-15T00:12:46.933Z,4.85
2018-05-15T00:12:59.412Z,4.85
2018-05-15T00:13:11.821Z,4.85
2018-05-15T00:13:24.239Z,4.85
2018-05-15T00:13:36.789Z,4.85
2018-05-15T00:13:49.216Z,4.85
2018-05-15T00:14:01.633Z,4.85
2018-05-15T00:14:14.088Z,4.85
2018-05-15T00:14:26.513Z,4.85
2018-05-15T00:14:38.950Z,4.85
2018-05-15T00:14:51.390Z,4.85
2018-05-15T00:15:03.809Z,4.85
2018-05-15T00:15:16.221Z,4.85
2018-05-15T00:15:28.714Z,4.85
2018-05-15T00:15:41.343Z,4.85
2018-05-15T00:15:53.755Z,4.85
2018-05-15T00:16:06.170Z,4.85
2018-05-15T00:16:18.664Z,4.85
2018-05-15T00:16:31.076Z,4.85
2018-05-15T00:16:43.509Z,4.85
2018-05-15T00:16:55.910Z,4.85
2018-05-15T00:17:08.336Z,4.85
2018-05-15T00:17:20.753Z,4.85
2018-05-15T00:17:33.167Z,4.85
2018-05-15T00:17:45.588Z,4.85
2018-05-15T00:17:58.005Z,4.85
2018-05-15T00:18:10.419Z,4.95
2018-05-15T00:18:22.977Z,4.95
2018-05-15T00:18:35.438Z,4.95
2018-05-15T00:18:47.860Z,4.95
2018-05-15T00:19:00.289Z,4.95
2018-05-15T00:19:12.699Z,4.95
2018-05-15T00:19:25.197Z,4.95
2018-05-15T00:19:37.611Z,4.95
2018-05-15T00:19:50.038Z,4.95
2018-05-15T00:20:02.460Z,4.95
2018-05-15T00:20:14.864Z,4.95
2018-05-15T00:20:27.272Z,4.95
2018-05-15T00:20:39.753Z,4.95
2018-05-15T00:20:52.159Z,4.95
2018-05-15T00:21:04.563Z,4.95
2018-05-15T00:21:16.982Z,4.95
2018-05-15T00:21:29.412Z,4.95
2018-05-15T00:21:41.822Z,4.95
2018-05-15T00:21:54.237Z,4.95
2018-05-15T00:22:06.649Z,4.95
2018-05-15T00:22:19.055Z,4.95
2018-05-15T00:22:31.474Z,4.95
2018-05-15T00:22:43.883Z,4.95
2018-05-15T00:22:56.302Z,4.95
2018-05-15T00:23:08.811Z,4.95
2018-05-15T00:23:21.275Z,4.95
2018-05-15T00:23:33.728Z,4.95
2018-05-15T00:23:46.154Z,4.95
2018-05-15T00:23:58.587Z,4.95
2018-05-15T00:24:10.994Z,4.95
2018-05-15T00:24:23.420Z,4.95
2018-05-15T00:24:35.917Z,4.95
2018-05-15T00:24:48.487Z,4.95
2018-05-15T00:25:00.903Z,4.95
2018-05-15T00:25:13.322Z,4.95
2018-05-15T00:25:25.737Z,4.95
2018-05-15T00:25:38.214Z,4.95
2018-05-15T00:25:50.643Z,4.95
2018-05-15T00:26:03.076Z,4.95
2018-05-15T00:26:15.489Z,4.95
2018-05-15T00:26:27.913Z,4.95
2018-05-15T00:26:40.335Z,4.95
2018-05-15T00:26:52.740Z,4.95
2018-05-15T00:27:05.162Z,4.95
2018-05-15T00:27:17.588Z,4.95
2018-05-15T00:27:29.999Z,4.95
2018-05-15T00:27:42.485Z,4.95
2018-05-15T00:27:54.896Z,4.95
2018-05-15T00:28:07.323Z,5
2018-05-15T00:28:19.752Z,5
2018-05-15T00:28:32.171Z,5
2018-05-15T00:28:44.574Z,5
2018-05-15T00:28:56.985Z,5
2018-05-15T00:29:09.393Z,5
2018-05-15T00:29:21.814Z,5
2018-05-15T00:29:34.234Z,5
2018-05-15T00:29:46.643Z,5
2018-05-15T00:29:59.090Z,5
2018-05-15T00:30:11.515Z,5
2018-05-15T00:30:23.922Z,5
2018-05-15T00:30:36.321Z,5
2018-05-15T00:30:48.746Z,5
2018-05-15T00:31:01.163Z,5
2018-05-15T00:31:13.569Z,5
2018-05-15T00:31:26.147Z,5
2018-05-15T00:31:38.561Z,5
2018-05-15T00:31:50.973Z,5
2018-05-15T00:32:03.392Z,5
2018-05-15T00:32:15.822Z,5
2018-05-15T00:32:28.250Z,5
2018-05-15T00:32:40.655Z,5
2018-05-15T00:32:53.144Z,5
2018-05-15T00:33:05.577Z,5
2018-05-15T00:33:18.089Z,5
2018-05-15T00:33:30.507Z,5
2018-05-15T00:33:42.933Z,5
2018-05-15T00:33:55.361Z,5
2018-05-15T00:34:07.776Z,5
2018-05-15T00:34:20.184Z,5
2018-05-15T00:34:32.609Z,5
2018-05-15T00:34:45.061Z,5
2018-05-15T00:34:57.491Z,5
2018-05-15T00:35:09.904Z,5
2018-05-15T00:35:22.306Z,5
2018-05-15T00:35:34.749Z,5
2018-05-15T00:35:47.163Z,5
2018-05-15T00:35:59.573Z,5
2018-05-15T00:36:12.164Z,5
2018-05-15T00:36:24.600Z,5
2018-05-15T00:36:37.072Z,5
2018-05-15T00:36:49.489Z,5
2018-05-15T00:37:01.889Z,5
2018-05-15T00:37:14.469Z,5
2018-05-15T00:37:26.891Z,5
2018-05-15T00:37:39.310Z,5
2018-05-15T00:37:51.716Z,5
2018-05-15T00:38:04.138Z,5
2018-05-15T00:38:16.544Z,4.82
2018-05-15T00:38:28.982Z,4.82
2018-05-15T00:38:41.459Z,4.82
2018-05-15T00:38:53.867Z,4.82
2018-05-15T00:39:06.333Z,4.82
2018-05-15T00:39:18.746Z,4.82
2018-05-15T00:39:31.179Z,4.82
2018-05-15T00:39:43.598Z,4.82
2018-05-15T00:39:56.021Z,4.82
2018-05-15T00:40:08.437Z,4.82
2018-05-15T00:40:20.840Z,4.82
2018-05-15T00:40:33.329Z,4.82
2018-05-15T00:40:45.751Z,4.82
2018-05-15T00:40:58.152Z,4.82
2018-05-15T00:41:10.577Z,4.82
2018-05-15T00:41:23.007Z,4.82
2018-05-15T00:41:35.414Z,4.82
2018-05-15T00:41:47.831Z,4.82
2018-05-15T00:42:00.251Z,4.82
2018-05-15T00:42:12.789Z,4.82
2018-05-15T00:42:25.222Z,4.82
2018-05-15T00:42:37.632Z,4.82
2018-05-15T00:42:50.093Z,4.82
2018-05-15T00:43:02.507Z,4.82
2018-05-15T00:43:14.916Z,4.82
2018-05-15T00:43:27.326Z,4.82
2018-05-15T00:43:39.741Z,4.82
2018-05-15T00:43:52.151Z,4.82
2018-05-15T00:44:04.587Z,4.82
2018-05-15T00:44:17.295Z,4.82
2018-05-15T00:44:30.402Z,4.82
2018-05-15T00:44:42.825Z,4.82
2018-05-15T00:44:55.244Z,4.82
2018-05-15T00:45:07.653Z,4.82
2018-05-15T00:45:20.080Z,4.82
2018-05-15T00:45:32.504Z,4.82
2018-05-15T00:45:44.923Z,4.82
2018-05-15T00:45:57.351Z,4.82
2018-05-15T00:46:09.759Z,4.82
2018-05-15T00:46:22.206Z,4.82
2018-05-15T00:46:34.622Z,4.82
2018-05-15T00:46:47.122Z,4.82
2018-05-15T00:46:59.618Z,4.82
2018-05-15T00:47:12.067Z,4.82
2018-05-15T00:47:24.475Z,4.82
2018-05-15T00:47:36.893Z,4.82
2018-05-15T00:47:49.315Z,4.82
2018-05-15T00:48:01.727Z,4.82
2018-05-15T00:48:14.143Z,4.65
2018-05-15T00:48:26.697Z,4.65
2018-05-15T00:48:39.111Z,4.65
2018-05-15T00:48:51.534Z,4.65
2018-05-15T00:49:03.969Z,4.65
2018-05-15T00:49:16.387Z,4.65
2018-05-15T00:49:28.812Z,4.65
2018-05-15T00:49:41.233Z,4.65
2018-05-15T00:49:53.652Z,4.65
2018-05-15T00:50:06.191Z,4.65
2018-05-15T00:50:18.615Z,4.65
2018-05-15T00:50:31.034Z,4.65
2018-05-15T00:50:43.454Z,4.65
2018-05-15T00:50:55.868Z,4.65
2018-05-15T00:51:08.285Z,4.65
2018-05-15T00:51:20.688Z,4.65
2018-05-15T00:51:33.096Z,4.65
2018-05-15T00:51:45.528Z,4.65
2018-05-15T00:51:58.254Z,4.65
2018-05-15T00:52:10.677Z,4.65
2018-05-15T00:52:23.102Z,4.65
2018-05-15T00:52:35.515Z,4.65
2018-05-15T00:52:47.927Z,4.65
2018-05-15T00:53:00.332Z,4.65
2018-05-15T00:53:12.756Z,4.65
2018-05-15T00:53:25.183Z,4.65
2018-05-15T00:53:37.603Z,4.65
2018-05-15T00:53:50.014Z,4.65
2018-05-15T00:54:02.456Z,4.65
2018-05-15T00:54:14.898Z,4.65
2018-05-15T00:54:27.411Z,4.65
2018-05-15T00:54:40.006Z,4.65
2018-05-15T00:54:52.493Z,4.65
2018-05-15T00:55:04.910Z,4.65
2018-05-15T00:55:17.319Z,4.65
2018-05-15T00:55:29.729Z,4.65
2018-05-15T00:55:42.143Z,4.65
2018-05-15T00:55:54.560Z,4.65
2018-05-15T00:56:06.974Z,4.65
2018-05-15T00:56:19.383Z,4.65
2018-05-15T00:56:31.804Z,4.65
2018-05-15T00:56:44.237Z,4.65
2018-05-15T00:56:56.697Z,4.65
2018-05-15T00:57:09.117Z,4.65
2018-05-15T00:57:21.543Z,4.65
2018-05-15T00:57:34.035Z,4.65
2018-05-15T00:57:46.435Z,4.65
2018-05-15T00:57:58.839Z,4.65
2018-05-15T00:58:11.259Z,5.08
2018-05-15T00:58:23.671Z,5.08
2018-05-15T00:58:36.072Z,5.08
2018-05-15T00:58:48.491Z,5.08
2018-05-15T00:59:00.915Z,5.08
2018-05-15T00:59:13.322Z,5.08
2018-05-15T00:59:25.726Z,5.08
2018-05-15T00:59:38.126Z,5.08
2018-05-15T00:59:50.541Z,5.08
2018-05-15T01:00:02.953Z,5.08
2018-05-15T01:00:15.536Z,5.08
2018-05-15T01:00:28.048Z,5.08
2018-05-15T01:00:40.492Z,5.08
2018-05-15T01:00:52.909Z,5.08
2018-05-15T01:01:05.414Z,5.08
2018-05-15T01:01:17.829Z,5.08
2018-05-15T01:01:30.236Z,5.08
2018-05-15T01:01:42.739Z,5.08
2018-05-15T01:01:55.204Z,5.08
2018-05-15T01:02:07.623Z,5.08
2018-05-15T01:02:20.028Z,5.08
2018-05-15T01:02:32.519Z,5.08
2018-05-15T01:02:44.956Z,5.08
2018-05-15T01:02:57.375Z,5.08
2018-05-15T01:03:09.802Z,5.08
2018-05-15T01:03:22.228Z,5.08
2018-05-15T01:03:34.646Z,5.08
2018-05-15T01:03:47.076Z,5.08
2018-05-15T01:03:59.493Z,5.08
2018-05-15T01:04:12.026Z,5.08
2018-05-15T01:04:24.436Z,5.08
2018-05-15T01:04:36.869Z,5.08
2018-05-15T01:04:49.300Z,5.08
2018-05-15T01:05:01.708Z,5.08
2018-05-15T01:05:14.153Z,5.08
2018-05-15T01:05:26.579Z,5.08
2018-05-15T01:05:39.018Z,5.08
2018-05-15T01:05:51.586Z,5.08
2018-05-15T01:06:04.018Z,5.08
2018-05-15T01:06:16.431Z,5.08
2018-05-15T01:06:28.845Z,5.08
2018-05-15T01:06:41.252Z,5.08
2018-05-15T01:06:53.665Z,5.08
2018-05-15T01:07:06.082Z,5.08
2018-05-15T01:07:18.496Z,5.08
2018-05-15T01:07:30.922Z,5.08
2018-05-15T01:07:43.336Z,5.08
2018-05-15T01:07:55.750Z,5.08
2018-05-15T01:08:08.169Z,5.25
2018-05-15T01:08:20.584Z,5.25
2018-05-15T01:08:33.009Z,5.25
2018-05-15T01:08:45.426Z,5.25
2018-05-15T01:08:57.839Z,5.25
2018-05-15T01:09:10.260Z,5.25
2018-05-15T01:09:22.765Z,5.25
2018-05-15T01:09:35.172Z,5.25
2018-05-15T01:09:47.569Z,5.25
2018-05-15T01:10:00.124Z,5.25
2018-05-15T01:10:12.565Z,5.25
2018-05-15T01:10:24.977Z,5.25
2018-05-15T01:10:37.390Z,5.25
2018-05-15T01:10:49.891Z,5.25
2018-05-15T01:11:02.412Z,5.25
2018-05-15T01:11:14.832Z,5.25
2018-05-15T01:11:27.232Z,5.25
2018-05-15T01:11:39.636Z,5.25
2018-05-15T01:11:52.221Z,5.25
2018-05-15T01:12:04.644Z,5.25
2018-05-15T01:12:17.063Z,5.25
2018-05-15T01:12:29.552Z,5.25
2018-05-15T01:12:41.972Z,5.25
2018-05-15T01:12:54.399Z,5.25
2018-05-15T01:13:06.813Z,5.25
2018-05-15T01:13:19.222Z,5.25
2018-05-15T01:13:31.793Z,5.25
2018-05-15T01:13:44.281Z,5.25
2018-05-15T01:13:56.701Z,5.25
2018-05-15T01:14:09.145Z,5.25
2018-05-15T01:14:21.566Z,5.25
2018-05-15T01:14:33.974Z,5.25
2018-05-15T01:14:46.409Z,5.25
2018-05-15T01:14:58.817Z,5.25
2018-05-15T01:15:11.217Z,5.25
2018-05-15T01:15:23.631Z,5.25
2018-05-15T01:15:36.127Z,5.25
2018-05-15T01:15:48.575Z,5.25
2018-05-15T01:16:00.996Z,5.25
2018-05-15T01:16:13.407Z,5.25
2018-05-15T01:16:25.813Z,5.25
2018-05-15T01:16:38.239Z,5.25
2018-05-15T01:16:50.643Z,5.25
2018-05-15T01:17:03.060Z,5.25
2018-05-15T01:17:15.477Z,5.25
2018-05-15T01:17:27.889Z,5.25
2018-05-15T01:17:40.296Z,5.25
2018-05-15T01:17:52.712Z,5.25
2018-05-15T01:18:05.125Z,5.25
2018-05-15T01:18:17.705Z,5.29
2018-05-15T01:18:30.175Z,5.29
2018-05-15T01:18:42.604Z,5.29
2018-05-15T01:18:55.007Z,5.29
2018-05-15T01:19:07.406Z,5.29
2018-05-15T01:19:19.811Z,5.29
2018-05-15T01:19:32.233Z,5.29
2018-05-15T01:19:44.646Z,5.29
2018-05-15T01:19:57.062Z,5.29
2018-05-15T01:20:09.479Z,5.29
2018-05-15T01:20:21.887Z,5.29
2018-05-15T01:20:34.303Z,5.29
2018-05-15T01:20:46.715Z,5.29
2018-05-15T01:20:59.194Z,5.29
2018-05-15T01:21:11.617Z,5.29
2018-05-15T01:21:24.044Z,5.29
2018-05-15T01:21:36.446Z,5.29
2018-05-15T01:21:48.859Z,5.29
2018-05-15T01:22:01.264Z,5.29
2018-05-15T01:22:13.689Z,5.29
2018-05-15T01:22:26.104Z,5.29
2018-05-15T01:22:38.531Z,5.29
2018-05-15T01:22:50.942Z,5.29
2018-05-15T01:23:03.376Z,5.29
2018-05-15T01:23:15.789Z,5.29
2018-05-15T01:23:28.237Z,5.29
2018-05-15T01:23:40.800Z,5.29
2018-05-15T01:23:53.208Z,5.29
2018-05-15T01:24:05.631Z,5.29
2018-05-15T01:24:18.044Z,5.29
2018-05-15T01:24:30.511Z,5.29
2018-05-15T01:24:42.938Z,5.29
2018-05-15T01:24:55.487Z,5.29
2018-05-15T01:25:07.908Z,5.29
2018-05-15T01:25:20.337Z,5.29
2018-05-15T01:25:32.759Z,5.29
2018-05-15T01:25:45.188Z,5.29
2018-05-15T01:25:57.593Z,5.29
2018-05-15T01:26:10.006Z,5.29
2018-05-15T01:26:22.442Z,5.29
2018-05-15T01:26:34.866Z,5.29
2018-05-15T01:26:47.299Z,5.29
2018-05-15T01:26:59.718Z,5.29
2018-05-15T01:27:12.141Z,5.29
2018-05-15T01:27:24.547Z,5.29
2018-05-15T01:27:36.971Z,5.29
2018-05-15T01:27:49.394Z,5.29
2018-05-15T01:28:01.911Z,5.29
2018-05-15T01:28:14.329Z,5
2018-05-15T01:28:26.751Z,5
2018-05-15T01:28:39.173Z,5
2018-05-15T01:28:51.597Z,5
2018-05-15T01:29:04.013Z,5
2018-05-15T01:29:16.437Z,5
2018-05-15T01:29:28.845Z,5
2018-05-15T01:29:41.271Z,5
2018-05-15T01:29:53.681Z,5
2018-05-15T01:30:06.101Z,5
2018-05-15T01:30:18.518Z,5
2018-05-15T01:30:30.997Z,5
2018-05-15T01:30:43.422Z,5
2018-05-15T01:30:55.834Z,5
2018-05-15T01:31:08.277Z,5
2018-05-15T01:31:20.838Z,5
2018-05-15T01:31:33.252Z,5
2018-05-15T01:31:45.665Z,5
2018-05-15T01:31:58.078Z,5
2018-05-15T01:32:10.522Z,5
2018-05-15T01:32:22.940Z,5
2018-05-15T01:32:35.359Z,5
2018-05-15T01:32:47.776Z,5
2018-05-15T01:33:00.199Z,5
2018-05-15T01:33:12.625Z,5
2018-05-15T01:33:25.055Z,5
2018-05-15T01:33:37.474Z,5
2018-05-15T01:33:49.975Z,5
2018-05-15T01:34:02.383Z,5
2018-05-15T01:34:14.800Z,5
2018-05-15T01:34:27.221Z,5
2018-05-15T01:34:39.656Z,5
2018-05-15T01:34:52.073Z,5
2018-05-15T01:35:04.545Z,5
2018-05-15T01:35:16.989Z,5
2018-05-15T01:35:29.406Z,5
2018-05-15T01:35:41.824Z,5
2018-05-15T01:35:54.239Z,5
2018-05-15T01:36:06.638Z,5
2018-05-15T01:36:19.483Z,5
2018-05-15T01:36:31.900Z,5
2018-05-15T01:36:44.326Z,5
2018-05-15T01:36:56.746Z,5
2018-05-15T01:37:09.157Z,5
2018-05-15T01:37:22.128Z,5
2018-05-15T01:37:34.543Z,5
2018-05-15T01:37:46.966Z,5
2018-05-15T01:37:59.661Z,5
2018-05-15T01:38:12.164Z,5.13
2018-05-15T01:38:24.576Z,5.13
2018-05-15T01:38:36.985Z,5.13
2018-05-15T01:38:49.495Z,5.13
2018-05-15T01:39:01.909Z,5.13
2018-05-15T01:39:14.328Z,5.13
2018-05-15T01:39:26.752Z,5.13
2018-05-15T01:39:39.169Z,5.13
2018-05-15T01:39:51.586Z,5.13
2018-05-15T01:40:04.013Z,5.13
2018-05-15T01:40:16.422Z,5.13
2018-05-15T01:40:28.838Z,5.13
2018-05-15T01:40:41.261Z,5.13
2018-05-15T01:40:53.694Z,5.13
2018-05-15T01:41:06.100Z,5.13
2018-05-15T01:41:18.657Z,5.13
2018-05-15T01:41:31.065Z,5.13
2018-05-15T01:41:43.498Z,5.13
2018-05-15T01:41:55.914Z,5.13
2018-05-15T01:42:08.342Z,5.13
2018-05-15T01:42:20.744Z,5.13
2018-05-15T01:42:33.156Z,5.13
2018-05-15T01:42:45.569Z,5.13
2018-05-15T01:42:57.984Z,5.13
2018-05-15T01:43:10.392Z,5.13
2018-05-15T01:43:22.792Z,5.13
2018-05-15T01:43:35.205Z,5.13
2018-05-15T01:43:47.608Z,5.13
2018-05-15T01:44:00.015Z,5.13
2018-05-15T01:44:12.415Z,5.13
2018-05-15T01:44:24.826Z,5.13
2018-05-15T01:44:37.235Z,5.13
2018-05-15T01:44:49.642Z,5.13
2018-05-15T01:45:02.074Z,5.13
2018-05-15T01:45:14.490Z,5.13
2018-05-15T01:45:26.975Z,5.13
2018-05-15T01:45:39.472Z,5.13
2018-05-15T01:45:51.879Z,5.13
2018-05-15T01:46:04.286Z,5.13
2018-05-15T01:46:16.915Z,5.13
2018-05-15T01:46:29.323Z,5.13
2018-05-15T01:46:41.738Z,5.13
2018-05-15T01:46:54.144Z,5.13
2018-05-15T01:47:06.557Z,5.13
2018-05-15T01:47:18.991Z,5.13
2018-05-15T01:47:31.421Z,5.13
2018-05-15T01:47:43.836Z,5.13
2018-05-15T01:47:56.255Z,5.13
2018-05-15T01:48:08.678Z,5.18
2018-05-15T01:48:21.193Z,5.18
2018-05-15T01:48:33.607Z,5.18
2018-05-15T01:48:46.025Z,5.18
2018-05-15T01:48:58.465Z,5.18
2018-05-15T01:49:10.884Z,5.18
2018-05-15T01:49:23.297Z,5.18
2018-05-15T01:49:35.716Z,5.18
2018-05-15T01:49:48.140Z,5.18
2018-05-15T01:50:00.557Z,5.18
2018-05-15T01:50:12.978Z,5.18
2018-05-15T01:50:25.445Z,5.18
2018-05-15T01:50:37.931Z,5.18
2018-05-15T01:50:50.335Z,5.18
2018-05-15T01:51:02.741Z,5.18
2018-05-15T01:51:15.154Z,5.18
2018-05-15T01:51:27.576Z,5.18
2018-05-15T01:51:39.986Z,5.18
2018-05-15T01:51:52.533Z,5.18
2018-05-15T01:52:05.074Z,5.18
2018-05-15T01:52:17.497Z,5.18
2018-05-15T01:52:29.904Z,5.18
2018-05-15T01:52:42.316Z,5.18
2018-05-15T01:52:54.740Z,5.18
2018-05-15T01:53:07.172Z,5.18
2018-05-15T01:53:19.593Z,5.18
2018-05-15T01:53:32.006Z,5.18
2018-05-15T01:53:44.414Z,5.18
2018-05-15T01:53:56.828Z,5.18
2018-05-15T01:54:09.240Z,5.18
2018-05-15T01:54:21.665Z,5.18
2018-05-15T01:54:34.085Z,5.18
2018-05-15T01:54:46.497Z,5.18
2018-05-15T01:54:58.902Z,5.18
2018-05-15T01:55:11.336Z,5.18
2018-05-15T01:55:23.767Z,5.18
2018-05-15T01:55:36.169Z,5.18
2018-05-15T01:55:48.629Z,5.18
2018-05-15T01:56:01.051Z,5.18
2018-05-15T01:56:13.442Z,5.18
2018-05-15T01:56:25.853Z,5.18
2018-05-15T01:56:38.279Z,5.18
2018-05-15T01:56:50.682Z,5.18
2018-05-15T01:57:03.156Z,5.18
2018-05-15T01:57:15.580Z,5.18
2018-05-15T01:57:27.978Z,5.18
2018-05-15T01:57:40.392Z,5.18
2018-05-15T01:57:52.896Z,5.18
2018-05-15T01:58:05.315Z,5.18
2018-05-15T01:58:17.721Z,5.19
2018-05-15T01:58:30.128Z,5.19
2018-05-15T01:58:42.544Z,5.19
2018-05-15T01:58:54.961Z,5.19
2018-05-15T01:59:07.389Z,5.19
2018-05-15T01:59:19.803Z,5.19
2018-05-15T01:59:32.271Z,5.19
2018-05-15T01:59:44.698Z,5.19
2018-05-15T01:59:57.116Z,5.19
2018-05-15T02:00:09.551Z,5.19
2018-05-15T02:00:22.158Z,5.19
2018-05-15T02:00:34.627Z,5.19
2018-05-15T02:00:47.106Z,5.19
2018-05-15T02:00:59.535Z,5.19
2018-05-15T02:01:12.011Z,5.19
2018-05-15T02:01:24.488Z,5.19
2018-05-15T02:01:36.891Z,5.19
2018-05-15T02:01:49.304Z,5.19
2018-05-15T02:02:01.767Z,5.19
2018-05-15T02:02:14.205Z,5.19
2018-05-15T02:02:26.703Z,5.19
2018-05-15T02:02:39.120Z,5.19
2018-05-15T02:02:51.528Z,5.19
2018-05-15T02:03:03.969Z,5.19
2018-05-15T02:03:16.436Z,5.19
2018-05-15T02:03:28.858Z,5.19
2018-05-15T02:03:41.284Z,5.19
2018-05-15T02:03:53.692Z,5.19
2018-05-15T02:04:06.338Z,5.19
2018-05-15T02:04:18.837Z,5.19
2018-05-15T02:04:31.273Z,5.19
2018-05-15T02:04:43.767Z,5.19
2018-05-15T02:04:56.188Z,5.19
2018-05-15T02:05:08.618Z,5.19
2018-05-15T02:05:21.054Z,5.19
2018-05-15T02:05:33.467Z,5.19
2018-05-15T02:05:45.870Z,5.19
2018-05-15T02:05:58.297Z,5.19
2018-05-15T02:06:10.724Z,5.19
2018-05-15T02:06:23.137Z,5.19
2018-05-15T02:06:35.555Z,5.19
2018-05-15T02:06:47.982Z,5.19
2018-05-15T02:07:00.396Z,5.19
2018-05-15T02:07:12.816Z,5.19
2018-05-15T02:07:25.233Z,5.19
2018-05-15T02:07:37.656Z,5.19
2018-05-15T02:07:50.065Z,5.19
2018-05-15T02:08:02.471Z,5.19
2018-05-15T02:08:14.881Z,6.08
2018-05-15T02:08:27.298Z,6.08
2018-05-15T02:08:39.715Z,6.08
2018-05-15T02:08:52.129Z,6.08
2018-05-15T02:09:04.577Z,6.08
2018-05-15T02:09:16.976Z,6.08
2018-05-15T02:09:29.388Z,6.08
2018-05-15T02:09:41.797Z,6.08
2018-05-15T02:09:54.212Z,6.08
2018-05-15T02:10:06.733Z,6.08
2018-05-15T02:10:19.166Z,6.08
2018-05-15T02:10:31.733Z,6.08
2018-05-15T02:10:44.172Z,6.08
2018-05-15T02:10:56.579Z,6.08
2018-05-15T02:11:08.989Z,6.08
2018-05-15T02:11:21.406Z,6.08
2018-05-15T02:11:33.820Z,6.08
2018-05-15T02:11:46.422Z,6.08
2018-05-15T02:11:58.839Z,6.08
2018-05-15T02:12:11.271Z,6.08
2018-05-15T02:12:23.680Z,6.08
2018-05-15T02:12:36.096Z,6.08
2018-05-15T02:12:48.505Z,6.08
2018-05-15T02:13:00.913Z,6.08
2018-05-15T02:13:13.331Z,6.08
2018-05-15T02:13:25.729Z,6.08
2018-05-15T02:13:38.309Z,6.08
2018-05-15T02:13:50.714Z,6.08
2018-05-15T02:14:03.191Z,6.08
2018-05-15T02:14:15.613Z,6.08
2018-05-15T02:14:28.036Z,6.08
2018-05-15T02:14:40.437Z,6.08
2018-05-15T02:14:52.846Z,6.08
2018-05-15T02:15:05.279Z,6.08
2018-05-15T02:15:17.700Z,6.08
2018-05-15T02:15:30.150Z,6.08
2018-05-15T02:15:42.702Z,6.08
2018-05-15T02:15:55.118Z,6.08
2018-05-15T02:16:07.545Z,6.08
2018-05-15T02:16:20.246Z,6.08
2018-05-15T02:16:32.656Z,6.08
2018-05-15T02:16:45.075Z,6.08
2018-05-15T02:16:57.494Z,6.08
2018-05-15T02:17:09.922Z,6.08
2018-05-15T02:17:22.337Z,6.08
2018-05-15T02:17:34.741Z,6.08
2018-05-15T02:17:47.152Z,6.08
2018-05-15T02:17:59.567Z,6.08
2018-05-15T02:18:11.990Z,5.5
2018-05-15T02:18:24.546Z,5.5
2018-05-15T02:18:36.959Z,5.5
2018-05-15T02:18:49.375Z,5.5
2018-05-15T02:19:01.791Z,5.5
2018-05-15T02:19:14.206Z,5.5
2018-05-15T02:19:26.670Z,5.5
2018-05-15T02:19:39.099Z,5.5
2018-05-15T02:19:51.584Z,5.5
2018-05-15T02:20:04.013Z,5.5
2018-05-15T02:20:16.431Z,5.5
2018-05-15T02:20:28.841Z,5.5
2018-05-15T02:20:41.259Z,5.5
2018-05-15T02:20:53.672Z,5.5
2018-05-15T02:21:06.094Z,5.5
2018-05-15T02:21:18.498Z,5.5
2018-05-15T02:21:30.992Z,5.5
2018-05-15T02:21:43.400Z,5.5
2018-05-15T02:21:55.813Z,5.5
2018-05-15T02:22:08.234Z,5.5
2018-05-15T02:22:20.656Z,5.5
2018-05-15T02:22:33.069Z,5.5
2018-05-15T02:22:45.475Z,5.5
2018-05-15T02:22:57.887Z,5.5
2018-05-15T02:23:10.304Z,5.5
2018-05-15T02:23:22.779Z,5.5
2018-05-15T02:23:35.195Z,5.5
2018-05-15T02:23:47.684Z,5.5
2018-05-15T02:24:00.148Z,5.5
2018-05-15T02:24:12.552Z,5.5
2018-05-15T02:24:24.961Z,5.5
2018-05-15T02:24:37.433Z,5.5
2018-05-15T02:24:49.977Z,5.5
2018-05-15T02:25:02.393Z,5.5
2018-05-15T02:25:14.803Z,5.5
2018-05-15T02:25:27.217Z,5.5
2018-05-15T02:25:39.622Z,5.5
2018-05-15T02:25:52.016Z,5.5
2018-05-15T02:26:04.426Z,5.5
2018-05-15T02:26:16.917Z,5.5
2018-05-15T02:26:29.329Z,5.5
2018-05-15T02:26:41.827Z,5.5
2018-05-15T02:26:54.247Z,5.5
2018-05-15T02:27:06.666Z,5.5
2018-05-15T02:27:19.077Z,5.5
2018-05-15T02:27:31.485Z,5.5
2018-05-15T02:27:43.982Z,5.5
2018-05-15T02:27:56.415Z,5.5
2018-05-15T02:28:08.836Z,5.5
2018-05-15T02:28:21.245Z,5.77
2018-05-15T02:28:33.651Z,5.77
2018-05-15T02:28:46.066Z,5.77
2018-05-15T02:28:58.465Z,5.77
2018-05-15T02:29:10.882Z,5.77
2018-05-15T02:29:23.276Z,5.77
2018-05-15T02:29:35.699Z,5.77
2018-05-15T02:29:48.151Z,5.77
2018-05-15T02:30:00.564Z,5.77
2018-05-15T02:30:13.008Z,5.77
2018-05-15T02:30:25.846Z,5.77
2018-05-15T02:30:39.240Z,5.77
2018-05-15T02:30:51.651Z,5.77
2018-05-15T02:31:04.095Z,5.77
2018-05-15T02:31:16.693Z,5.77
2018-05-15T02:31:29.128Z,5.77
2018-05-15T02:31:41.559Z,5.77
2018-05-15T02:31:54.096Z,5.77
2018-05-15T02:32:06.553Z,5.77
2018-05-15T02:32:19.011Z,5.77
2018-05-15T02:32:31.435Z,5.77
2018-05-15T02:32:43.870Z,5.77
2018-05-15T02:32:56.314Z,5.77
2018-05-15T02:33:08.725Z,5.77
2018-05-15T02:33:21.165Z,5.77
2018-05-15T02:33:33.596Z,5.77
2018-05-15T02:33:46.028Z,5.77
2018-05-15T02:33:58.452Z,5.77
2018-05-15T02:34:10.902Z,5.77
2018-05-15T02:34:23.351Z,5.77
2018-05-15T02:34:35.816Z,5.77
2018-05-15T02:34:48.245Z,5.77
2018-05-15T02:35:00.675Z,5.77
2018-05-15T02:35:13.113Z,5.77
2018-05-15T02:35:25.571Z,5.77
2018-05-15T02:35:38.013Z,5.77
2018-05-15T02:35:50.432Z,5.77
2018-05-15T02:36:02.868Z,5.77
2018-05-15T02:36:15.365Z,5.77
2018-05-15T02:36:27.794Z,5.77
2018-05-15T02:36:40.230Z,5.77
2018-05-15T02:36:52.653Z,5.77
2018-05-15T02:37:05.092Z,5.77
2018-05-15T02:37:17.679Z,5.77
2018-05-15T02:37:30.101Z,5.77
2018-05-15T02:37:42.519Z,5.77
2018-05-15T02:37:54.964Z,5.77
2018-05-15T02:38:07.446Z,5.77
2018-05-15T02:38:19.896Z,5.25
2018-05-15T02:38:32.332Z,5.25
2018-05-15T02:38:44.740Z,5.25
2018-05-15T02:38:57.152Z,5.25
2018-05-15T02:39:09.614Z,5.25
2018-05-15T02:39:22.049Z,5.25
2018-05-15T02:39:34.497Z,5.25
2018-05-15T02:39:46.913Z,5.25
2018-05-15T02:39:59.348Z,5.25
2018-05-15T02:40:11.774Z,5.25
2018-05-15T02:40:24.193Z,5.25
2018-05-15T02:40:36.628Z,5.25
2018-05-15T02:40:49.049Z,5.25
2018-05-15T02:41:01.482Z,5.25
2018-05-15T02:41:13.908Z,5.25
2018-05-15T02:41:26.346Z,5.25
2018-05-15T02:41:38.762Z,5.25
2018-05-15T02:41:51.201Z,5.25
2018-05-15T02:42:03.632Z,5.25
2018-05-15T02:42:16.062Z,5.25
2018-05-15T02:42:28.566Z,5.25
2018-05-15T02:42:41.030Z,5.25
2018-05-15T02:42:53.463Z,5.25
2018-05-15T02:43:05.895Z,5.25
2018-05-15T02:43:18.324Z,5.25
2018-05-15T02:43:30.775Z,5.25
2018-05-15T02:43:43.215Z,5.25
2018-05-15T02:43:55.654Z,5.25
2018-05-15T02:44:08.107Z,5.25
2018-05-15T02:44:20.515Z,5.25
2018-05-15T02:44:32.980Z,5.25
2018-05-15T02:44:45.419Z,5.25
2018-05-15T02:44:57.846Z,5.25
2018-05-15T02:45:10.288Z,5.25
2018-05-15T02:45:22.704Z,5.25
2018-05-15T02:45:35.147Z,5.25
2018-05-15T02:45:47.588Z,5.25
2018-05-15T02:46:00.012Z,5.25
2018-05-15T02:46:12.423Z,5.25
2018-05-15T02:46:24.858Z,5.25
2018-05-15T02:46:37.401Z,5.25
2018-05-15T02:46:49.852Z,5.25
2018-05-15T02:47:02.289Z,5.25
2018-05-15T02:47:14.708Z,5.25
2018-05-15T02:47:27.139Z,5.25
2018-05-15T02:47:39.606Z,5.25
2018-05-15T02:47:52.062Z,5.25